Time;durP1;ratioP1;P1;durP2;ratioP2;P2;SDS_P1;SDS_P2;PMS_P1;PMS_P2;Temp;Humidity;BMP_temperature;BMP_pressure;BME280_temperature;BME280_humidity;BME280_pressure;Samples;Min_cycle;Max_cycle;Signal;HPM_P1;HPM_P2
2022/05/02 00:00:44;;;;;;;;;;;6.30;99.90;;;;;;5033702;28;20301;-68
2022/05/02 00:03:10;;;;;;;;;;;6.00;99.90;;;;;;5037605;28;19925;-69
2022/05/02 00:05:35;;;;;;;;;;;6.00;99.90;;;;;;5036570;28;19925;-67
2022/05/02 00:08:01;;;;;;;;;;;6.00;99.90;;;;;;5036117;28;19968;-68
2022/05/02 00:10:27;;;;;;;;;;;6.00;99.90;;;;;;5037558;28;19925;-68
2022/05/02 00:12:53;;;;;;;;;;;6.00;99.90;;;;;;5037584;28;19925;-68
2022/05/02 00:15:19;;;;;;;;;;;5.90;99.90;;;;;;5037425;28;19929;-68
2022/05/02 00:17:57;;;;;;;;;;;6.00;99.90;;;;;;5037322;28;20012;-70
2022/05/02 00:20:26;;;;;;;;;;;5.90;99.90;;;;;;5037221;28;19925;-69
2022/05/02 00:22:52;;;;;;;;;;;5.90;99.90;;;;;;5036942;28;19979;-67
2022/05/02 00:25:18;;;;;;;;;;;6.00;99.90;;;;;;5036397;28;19929;-68
2022/05/02 00:27:43;;;;;;;;;;;6.60;99.90;;;;;;5036325;28;20384;-68
2022/05/02 00:30:10;;;;;;;;;;;6.30;99.90;;;;;;5036099;28;19925;-70
2022/05/02 00:32:36;;;;;;;;;;;6.10;99.90;;;;;;5052472;28;19932;-67
2022/05/02 00:35:02;;;;;;;;;;;6.00;99.90;;;;;;5036019;28;20312;-68
2022/05/02 00:37:28;;;;;;;;;;;7.50;99.90;;;;;;5036830;28;20022;-67
2022/05/02 00:39:54;;;;;;;;;;;6.10;99.90;;;;;;5036132;28;19925;-68
2022/05/02 00:42:20;;;;;;;;;;;6.10;99.90;;;;;;5037057;28;20312;-68
2022/05/02 00:44:46;;;;;;;;;;;7.20;99.90;;;;;;5036849;28;19925;-68
2022/05/02 00:47:15;;;;;;;;;;;6.10;99.90;;;;;;5036793;28;20299;-70
2022/05/02 00:49:41;;;;;;;;;;;6.10;99.90;;;;;;5036687;28;19925;-69
2022/05/02 00:52:07;;;;;;;;;;;6.30;99.90;;;;;;5035633;28;20387;-69
2022/05/02 00:54:33;;;;;;;;;;;6.10;99.90;;;;;;5035834;28;19925;-70
2022/05/02 00:56:59;;;;;;;;;;;6.70;99.90;;;;;;5035471;28;20327;-67
2022/05/02 00:59:26;;;;;;;;;;;6.40;99.90;;;;;;5036588;28;19925;-68
2022/05/02 01:01:52;;;;;;;;;;;7.30;99.90;;;;;;5036509;28;20439;-70
2022/05/02 01:04:17;;;;;;;;;;;5.90;99.90;;;;;;5036379;28;19926;-68
2022/05/02 01:09:28;;;;;;;;;;;7.60;99.90;;;;;;5035390;28;19925;-68
2022/05/02 01:11:55;;;;;;;;;;;6.00;99.90;;;;;;5050306;28;19925;-67
2022/05/02 01:14:20;;;;;;;;;;;6.00;99.90;;;;;;5034264;28;19925;-68
2022/05/02 01:16:46;;;;;;;;;;;6.10;99.90;;;;;;5050395;28;19979;-66
2022/05/02 01:19:11;;;;;;;;;;;6.10;99.90;;;;;;5035070;28;20024;-68
2022/05/02 01:21:38;;;;;;;;;;;6.50;99.90;;;;;;5034828;28;20015;-68
2022/05/02 01:24:04;;;;;;;;;;;6.30;99.90;;;;;;5035246;28;19936;-67
2022/05/02 01:26:30;;;;;;;;;;;6.00;99.90;;;;;;5035048;28;19925;-68
2022/05/02 01:28:57;;;;;;;;;;;6.00;99.90;;;;;;5034983;28;19925;-67
2022/05/02 01:31:22;;;;;;;;;;;5.80;99.90;;;;;;5033813;28;20479;-67
2022/05/02 01:33:49;;;;;;;;;;;6.00;99.90;;;;;;5034813;28;19975;-69
2022/05/02 01:36:15;;;;;;;;;;;6.40;99.90;;;;;;5035177;28;19947;-68
2022/05/02 01:38:41;;;;;;;;;;;5.70;99.90;;;;;;5034977;28;19932;-70
2022/05/02 01:41:07;;;;;;;;;;;5.80;99.90;;;;;;5034641;28;20461;-68
2022/05/02 01:43:33;;;;;;;;;;;6.60;99.90;;;;;;5034795;28;19925;-66
2022/05/02 01:45:59;;;;;;;;;;;7.40;99.90;;;;;;5034660;28;19925;-67
2022/05/02 01:48:25;;;;;;;;;;;5.90;99.90;;;;;;5049942;28;20296;-68
2022/05/02 01:50:50;;;;;;;;;;;6.00;99.90;;;;;;5033419;28;19925;-67
2022/05/02 01:53:16;;;;;;;;;;;5.90;99.90;;;;;;5034447;28;19948;-68
2022/05/02 01:55:42;;;;;;;;;;;5.90;99.90;;;;;;5034594;28;20400;-68
2022/05/02 01:58:07;;;;;;;;;;;7.10;99.90;;;;;;5033618;28;19971;-68
2022/05/02 02:00:33;;;;;;;;;;;7.40;99.90;;;;;;5034440;28;20304;-70
2022/05/02 02:02:58;;;;;;;;;;;5.60;99.90;;;;;;5034317;28;19932;-68
2022/05/02 02:08:08;;;;;;;;;;;5.60;99.90;;;;;;4971044;28;1783860;-69
2022/05/02 02:10:34;;;;;;;;;;;5.50;99.90;;;;;;5035375;28;20377;-69
2022/05/02 02:12:59;;;;;;;;;;;5.50;99.90;;;;;;5035281;28;20023;-67
2022/05/02 02:15:25;;;;;;;;;;;6.00;99.90;;;;;;5035227;28;19932;-70
2022/05/02 02:17:50;;;;;;;;;;;5.40;99.90;;;;;;5035149;28;19979;-71
2022/05/02 02:20:16;;;;;;;;;;;5.40;99.90;;;;;;5034952;28;19948;-67
2022/05/02 02:22:41;;;;;;;;;;;5.90;99.90;;;;;;5034723;28;20399;-67
2022/05/02 02:25:07;;;;;;;;;;;6.50;99.90;;;;;;5034368;28;20288;-69
2022/05/02 02:27:33;;;;;;;;;;;5.50;99.90;;;;;;5035056;28;20311;-67
2022/05/02 02:29:59;;;;;;;;;;;7.50;99.90;;;;;;5034790;28;19932;-67
2022/05/02 02:32:24;;;;;;;;;;;6.10;99.90;;;;;;5033896;28;20347;-68
2022/05/02 02:34:50;;;;;;;;;;;5.50;99.90;;;;;;5033734;28;19925;-68
2022/05/02 02:37:16;;;;;;;;;;;5.80;99.90;;;;;;5050201;28;19947;-67
2022/05/02 02:39:45;;;;;;;;;;;5.10;99.90;;;;;;5033934;28;19976;-67
2022/05/02 02:42:10;;;;;;;;;;;5.00;99.90;;;;;;5034823;28;19929;-67
2022/05/02 02:44:36;;;;;;;;;;;4.90;99.90;;;;;;5034439;28;19979;-67
2022/05/02 02:47:02;;;;;;;;;;;5.00;99.90;;;;;;5033630;28;19925;-68
2022/05/02 02:49:27;;;;;;;;;;;5.00;99.90;;;;;;5049914;28;19975;-68
2022/05/02 02:51:53;;;;;;;;;;;5.00;99.90;;;;;;5033375;28;19925;-67
2022/05/02 02:54:18;;;;;;;;;;;5.80;99.90;;;;;;5033544;28;19925;-67
2022/05/02 02:56:44;;;;;;;;;;;5.00;99.90;;;;;;5034406;28;19936;-69
2022/05/02 02:59:09;;;;;;;;;;;6.50;99.90;;;;;;5034465;28;19925;-67
2022/05/02 03:01:35;;;;;;;;;;;6.30;99.90;;;;;;5033473;28;19925;-69
2022/05/02 03:06:01;;;;;;;;;;;3.60;99.90;;;;;;5034207;28;19929;-70
2022/05/02 03:06:46;;;;;;;;;;;5.10;99.90;;;;;;5034126;28;19932;-69
2022/05/02 03:09:12;;;;;;;;;;;5.10;99.90;;;;;;5034277;28;19925;-67
2022/05/02 03:11:37;;;;;;;;;;;5.80;99.90;;;;;;5034212;28;20025;-66
2022/05/02 03:14:03;;;;;;;;;;;6.70;99.90;;;;;;5033237;28;19925;-67
2022/05/02 03:16:29;;;;;;;;;;;3.10;99.90;;;;;;5034015;28;19948;-67
2022/05/02 03:18:54;;;;;;;;;;;4.60;99.90;;;;;;5034021;28;19929;-68
2022/05/02 03:21:20;;;;;;;;;;;5.60;99.90;;;;;;5033818;28;19925;-69
2022/05/02 03:23:45;;;;;;;;;;;4.40;99.90;;;;;;5033967;28;19925;-67
2022/05/02 03:26:11;;;;;;;;;;;5.50;99.90;;;;;;5034047;28;20016;-69
2022/05/02 03:28:36;;;;;;;;;;;5.30;99.90;;;;;;5033950;28;20031;-67
2022/05/02 03:31:02;;;;;;;;;;;5.90;99.90;;;;;;5033957;28;19925;-68
2022/05/02 03:33:28;;;;;;;;;;;4.50;99.90;;;;;;5033750;28;19932;-68
2022/05/02 03:35:54;;;;;;;;;;;4.50;99.90;;;;;;5033554;28;19925;-69
2022/05/02 03:38:20;;;;;;;;;;;4.50;99.90;;;;;;5032736;28;19925;-70
2022/05/02 03:40:45;;;;;;;;;;;4.40;99.90;;;;;;5033882;28;20296;-68
2022/05/02 03:43:11;;;;;;;;;;;4.40;99.90;;;;;;5032815;28;19925;-70
2022/05/02 03:45:36;;;;;;;;;;;5.20;99.90;;;;;;5032780;28;19968;-68
2022/05/02 03:48:02;;;;;;;;;;;4.20;99.90;;;;;;5033719;28;19925;-66
2022/05/02 03:50:28;;;;;;;;;;;4.20;99.90;;;;;;5032619;28;20368;-67
2022/05/02 03:52:53;;;;;;;;;;;5.20;99.90;;;;;;5033440;28;19929;-69
2022/05/02 03:55:19;;;;;;;;;;;4.40;99.90;;;;;;5033686;28;19925;-69
2022/05/02 03:57:44;;;;;;;;;;;4.20;99.90;;;;;;5033424;28;19935;-70
2022/05/02 04:00:10;;;;;;;;;;;4.30;99.90;;;;;;5033624;28;19925;-69
2022/05/02 04:02:36;;;;;;;;;;;4.30;99.90;;;;;;5032627;28;19925;-67
2022/05/02 04:05:01;;;;;;;;;;;4.30;99.90;;;;;;5048879;28;19976;-70
2022/05/02 04:07:27;;;;;;;;;;;4.40;99.90;;;;;;5033312;28;19925;-67
2022/05/02 04:09:52;;;;;;;;;;;4.40;99.90;;;;;;5033498;28;20288;-70
2022/05/02 04:12:18;;;;;;;;;;;5.00;99.90;;;;;;5033554;28;20019;-68
2022/05/02 04:14:43;;;;;;;;;;;4.50;99.90;;;;;;5033493;28;20023;-67
2022/05/02 04:17:10;;;;;;;;;;;4.30;99.90;;;;;;5033427;28;19925;-67
2022/05/02 04:19:35;;;;;;;;;;;4.20;99.90;;;;;;5032127;28;20334;-68
2022/05/02 04:22:01;;;;;;;;;;;4.10;99.90;;;;;;5033178;28;20020;-67
2022/05/02 04:24:28;;;;;;;;;;;4.90;99.90;;;;;;5033446;28;19984;-68
2022/05/02 04:26:56;;;;;;;;;;;3.80;99.90;;;;;;5033393;28;19931;-67
2022/05/02 04:29:22;;;;;;;;;;;4.30;99.90;;;;;;5033418;28;19925;-67
2022/05/02 04:31:47;;;;;;;;;;;3.60;99.90;;;;;;5033375;28;20344;-70
2022/05/02 04:34:14;;;;;;;;;;;4.80;99.90;;;;;;5033199;28;19932;-68
2022/05/02 04:36:39;;;;;;;;;;;3.60;99.90;;;;;;5032191;28;19931;-66
2022/05/02 04:39:05;;;;;;;;;;;3.60;99.90;;;;;;5033070;28;20297;-67
2022/05/02 04:41:31;;;;;;;;;;;5.10;99.90;;;;;;5033299;28;19979;-67
2022/05/02 04:43:56;;;;;;;;;;;2.20;99.90;;;;;;5033200;28;19925;-67
2022/05/02 04:46:22;;;;;;;;;;;4.10;99.90;;;;;;5033289;28;20292;-67
2022/05/02 04:48:48;;;;;;;;;;;5.10;99.90;;;;;;5035459;28;19935;-69
2022/05/02 04:51:13;;;;;;;;;;;4.30;99.90;;;;;;5036664;28;19932;-66
2022/05/02 04:53:39;;;;;;;;;;;4.60;99.90;;;;;;5036732;28;19983;-68
2022/05/02 04:56:05;;;;;;;;;;;4.40;99.90;;;;;;5036876;28;19929;-67
2022/05/02 04:58:30;;;;;;;;;;;4.40;99.90;;;;;;5036472;28;19925;-67
2022/05/02 05:00:56;;;;;;;;;;;4.40;99.90;;;;;;5036694;28;19932;-68
2022/05/02 05:03:21;;;;;;;;;;;4.50;99.90;;;;;;5036590;28;19925;-66
2022/05/02 05:05:47;;;;;;;;;;;4.90;99.90;;;;;;5036432;28;20027;-67
2022/05/02 05:08:13;;;;;;;;;;;5.50;99.90;;;;;;5036443;28;19932;-67
2022/05/02 05:10:46;;;;;;;;;;;4.60;99.90;;;;;;5036539;28;19925;-68
2022/05/02 05:13:15;;;;;;;;;;;4.70;99.90;;;;;;5036462;28;19925;-68
2022/05/02 05:18:45;;;;;;;;;;;3.30;99.90;;;;;;5036169;28;20382;-67
2022/05/02 05:21:29;;;;;;;;;;;4.90;99.90;;;;;;5035072;28;19929;-67
2022/05/02 05:23:59;;;;;;;;;;;5.00;99.90;;;;;;5036060;28;19933;-67
2022/05/02 05:26:40;;;;;;;;;;;5.10;99.90;;;;;;5034958;28;20359;-68
2022/05/02 05:29:18;;;;;;;;;;;7.00;99.90;;;;;;5036511;28;19925;-70
2022/05/02 05:31:51;;;;;;;;;;;5.30;99.90;;;;;;5036180;28;19925;-67
2022/05/02 05:34:38;;;;;;;;;;;5.40;99.90;;;;;;5035796;28;20427;-67
2022/05/02 05:37:16;;;;;;;;;;;5.60;99.90;;;;;;5035923;28;19931;-69
2022/05/02 05:39:53;;;;;;;;;;;5.70;99.90;;;;;;5051489;28;19971;-68
2022/05/02 05:42:34;;;;;;;;;;;5.80;99.90;;;;;;5036018;28;20325;-68
2022/05/02 05:45:03;;;;;;;;;;;5.90;99.90;;;;;;5035549;28;20406;-69
2022/05/02 05:47:32;;;;;;;;;;;6.00;99.90;;;;;;5035719;28;19933;-68
2022/05/02 05:49:57;;;;;;;;;;;6.10;99.90;;;;;;5035644;28;19932;-68
2022/05/02 05:52:33;;;;;;;;;;;6.20;99.90;;;;;;5035548;28;20387;-68
2022/05/02 05:55:05;;;;;;;;;;;6.30;99.90;;;;;;5035819;28;19929;-68
2022/05/02 05:57:35;;;;;;;;;;;6.40;99.90;;;;;;5050573;28;19925;-67
2022/05/02 06:00:09;;;;;;;;;;;6.90;99.90;;;;;;5034326;28;20015;-68
2022/05/02 06:02:53;;;;;;;;;;;6.60;99.90;;;;;;5034193;28;20123;-69
2022/05/02 06:05:18;;;;;;;;;;;6.70;99.90;;;;;;5034518;28;19983;-68
2022/05/02 06:07:46;;;;;;;;;;;7.00;99.90;;;;;;5035079;28;19980;-69
2022/05/02 06:10:13;;;;;;;;;;;6.90;99.90;;;;;;5034344;28;19932;-69
2022/05/02 06:12:39;;;;;;;;;;;7.40;99.90;;;;;;5035279;28;19925;-67
2022/05/02 06:20:36;;;;;;;;;;;7.40;99.90;;;;;;5035183;28;19925;-71
2022/05/02 06:23:02;;;;;;;;;;;8.40;99.90;;;;;;5034988;28;19925;-69
2022/05/02 06:25:32;;;;;;;;;;;8.20;99.90;;;;;;5033980;28;19925;-68
2022/05/02 06:27:58;;;;;;;;;;;7.60;99.90;;;;;;5034558;28;20024;-67
2022/05/02 06:30:26;;;;;;;;;;;8.40;99.90;;;;;;5034599;28;19975;-67
2022/05/02 06:32:51;;;;;;;;;;;7.80;99.90;;;;;;5034886;28;19929;-67
2022/05/02 06:35:17;;;;;;;;;;;7.90;99.90;;;;;;5034709;28;19925;-68
2022/05/02 06:37:49;;;;;;;;;;;8.00;99.90;;;;;;5034514;28;19925;-69
2022/05/02 06:40:30;;;;;;;;;;;8.10;99.90;;;;;;5033907;28;20102;-69
2022/05/02 06:43:08;;;;;;;;;;;8.10;99.90;;;;;;5034456;28;19971;-68
2022/05/02 06:45:56;;;;;;;;;;;8.20;99.90;;;;;;5034488;28;20340;-67
2022/05/02 06:48:27;;;;;;;;;;;8.30;99.90;;;;;;5027696;28;20395;-69
2022/05/02 06:50:55;;;;;;;;;;;8.40;99.90;;;;;;5034436;28;19932;-68
2022/05/02 06:53:24;;;;;;;;;;;8.60;99.90;;;;;;5034408;28;19967;-68
2022/05/02 06:56:08;;;;;;;;;;;8.70;99.90;;;;;;5034318;28;19932;-69
2022/05/02 06:58:39;;;;;;;;;;;8.80;99.90;;;;;;5033457;28;19999;-70
2022/05/02 07:01:08;;;;;;;;;;;8.90;99.90;;;;;;5034272;28;19968;-67
2022/05/02 07:03:34;;;;;;;;;;;9.00;99.90;;;;;;5034135;28;19925;-68
2022/05/02 07:05:59;;;;;;;;;;;9.10;99.90;;;;;;5033974;28;19974;-68
2022/05/02 07:08:28;;;;;;;;;;;10.00;99.90;;;;;;5034306;28;19994;-69
2022/05/02 07:11:08;;;;;;;;;;;9.30;99.90;;;;;;5031956;28;19932;-69
2022/05/02 07:14:06;;;;;;;;;;;9.30;99.90;;;;;;5032671;28;20269;-66
2022/05/02 07:16:38;;;;;;;;;;;9.50;99.90;;;;;;4992087;28;20397;-68
2022/05/02 07:19:10;;;;;;;;;;;9.60;99.90;;;;;;4976392;28;19925;-67
2022/05/02 07:21:39;;;;;;;;;;;9.60;99.90;;;;;;4992163;28;19926;-68
2022/05/02 07:24:13;;;;;;;;;;;9.70;99.90;;;;;;4991715;28;19929;-68
2022/05/02 07:26:39;;;;;;;;;;;9.80;99.90;;;;;;4975412;28;19926;-68
2022/05/02 07:29:06;;;;;;;;;;;9.90;99.90;;;;;;4992206;28;20341;-68
2022/05/02 07:31:33;;;;;;;;;;;10.00;99.90;;;;;;4992145;28;19933;-68
2022/05/02 07:34:01;;;;;;;;;;;10.10;99.90;;;;;;4991949;28;19979;-68
2022/05/02 07:36:31;;;;;;;;;;;10.20;99.90;;;;;;4975995;28;19965;-68
2022/05/02 07:39:01;;;;;;;;;;;10.30;99.90;;;;;;5008202;28;20308;-69
2022/05/02 07:41:27;;;;;;;;;;;10.40;99.90;;;;;;4991816;28;20017;-68
2022/05/02 07:44:02;;;;;;;;;;;10.50;99.90;;;;;;4991853;28;19925;-68
2022/05/02 07:46:35;;;;;;;;;;;10.50;99.90;;;;;;5008188;28;19925;-68
2022/05/02 07:49:02;;;;;;;;;;;10.60;99.90;;;;;;4991816;28;19926;-67
2022/05/02 07:51:29;;;;;;;;;;;10.60;99.90;;;;;;4991874;28;19926;-68
2022/05/02 07:53:57;;;;;;;;;;;10.70;99.90;;;;;;5043708;28;20376;-68
2022/05/02 07:56:26;;;;;;;;;;;10.80;99.90;;;;;;5032124;28;19924;-69
2022/05/02 07:58:54;;;;;;;;;;;10.90;99.90;;;;;;5032569;28;19932;-69
2022/05/02 08:01:21;;;;;;;;;;;11.00;99.90;;;;;;5048488;28;19928;-70
2022/05/02 08:03:48;;;;;;;;;;;11.10;99.90;;;;;;5033269;28;19925;-68
2022/05/02 08:06:23;;;;;;;;;;;11.20;99.90;;;;;;5033237;28;20368;-69
2022/05/02 08:09:02;;;;;;;;;;;11.30;99.90;;;;;;5048542;28;19925;-68
2022/05/02 08:11:47;;;;;;;;;;;11.30;99.90;;;;;;5033311;28;19925;-69
2022/05/02 08:14:16;;;;;;;;;;;11.30;99.90;;;;;;5033248;28;20296;-70
2022/05/02 08:16:53;;;;;;;;;;;11.40;99.90;;;;;;5033030;28;19925;-68
2022/05/02 08:19:24;;;;;;;;;;;11.50;99.90;;;;;;5033095;28;20020;-68
2022/05/02 08:28:00;;;;;;;;;;;11.70;99.90;;;;;;5036952;28;19936;-68
2022/05/02 08:30:26;;;;;;;;;;;11.70;99.90;;;;;;5037014;28;20300;-70
2022/05/02 08:33:06;;;;;;;;;;;11.80;99.90;;;;;;5036974;28;19980;-69
2022/05/02 08:35:43;;;;;;;;;;;11.90;99.90;;;;;;5036645;28;20054;-68
2022/05/02 08:38:15;;;;;;;;;;;12.00;99.90;;;;;;5036685;28;19925;-68
2022/05/02 08:41:10;;;;;;;;;;;12.00;99.90;;;;;;5036956;28;19929;-68
2022/05/02 08:43:42;;;;;;;;;;;12.10;99.90;;;;;;5036650;28;20368;-67
2022/05/02 08:46:26;;;;;;;;;;;12.20;99.90;;;;;;5036742;28;19925;-69
2022/05/02 08:52:08;;;;;;;;;;;12.30;99.90;;;;;;5035591;28;20288;-69
2022/05/02 08:54:40;;;;;;;;;;;12.40;99.90;;;;;;5036270;28;19976;-67
2022/05/02 08:57:14;;;;;;;;;;;12.40;99.90;;;;;;5036354;28;19925;-70
2022/05/02 08:59:58;;;;;;;;;;;12.50;99.90;;;;;;5036532;28;19925;-69
2022/05/02 09:02:43;;;;;;;;;;;12.60;99.90;;;;;;5036500;28;19926;-69
2022/05/02 09:05:16;;;;;;;;;;;12.70;99.90;;;;;;5036200;28;19948;-67
2022/05/02 09:07:45;;;;;;;;;;;12.80;99.90;;;;;;5035779;28;19987;-68
2022/05/02 09:10:19;;;;;;;;;;;12.90;99.90;;;;;;5051588;28;20079;-68
2022/05/02 09:12:49;;;;;;;;;;;13.10;99.90;;;;;;5036142;28;19932;-68
2022/05/02 09:15:33;;;;;;;;;;;13.20;99.90;;;;;;5036214;28;20046;-70
2022/05/02 09:18:27;;;;;;;;;;;13.20;99.90;;;;;;5035970;28;19929;-68
2022/05/02 09:20:57;;;;;;;;;;;13.30;99.90;;;;;;5035874;28;20334;-70
2022/05/02 09:23:30;;;;;;;;;;;13.30;99.90;;;;;;5035637;28;19925;-69
2022/05/02 09:26:14;;;;;;;;;;;13.50;99.90;;;;;;5037932;28;19925;-67
2022/05/02 09:28:56;;;;;;;;;;;13.50;99.90;;;;;;5053853;28;19924;-68
2022/05/02 09:31:41;;;;;;;;;;;13.60;99.90;;;;;;5055182;28;19925;-70
2022/05/02 09:34:10;;;;;;;;;;;13.70;99.90;;;;;;5054195;28;20380;-69
2022/05/02 09:36:42;;;;;;;;;;;13.70;99.90;;;;;;5055615;28;19931;-68
2022/05/02 09:39:15;;;;;;;;;;;13.80;99.90;;;;;;5055477;28;19984;-69
2022/05/02 09:41:52;;;;;;;;;;;13.90;99.90;;;;;;5055614;28;19924;-69
2022/05/02 09:50:33;;;;;;;;;;;14.00;99.90;;;;;;5055399;28;19925;-70
2022/05/02 09:53:03;;;;;;;;;;;14.00;99.90;;;;;;5055122;28;19924;-69
2022/05/02 09:58:41;;;;;;;;;;;14.10;99.90;;;;;;5054622;28;19925;-68
2022/05/02 10:01:17;;;;;;;;;;;14.20;95.50;;;;;;5037711;28;19925;-69
2022/05/02 10:04:01;;;;;;;;;;;14.30;99.90;;;;;;5054895;28;19932;-70
2022/05/02 10:06:34;;;;;;;;;;;14.30;99.90;;;;;;5053770;28;19928;-69
2022/05/02 10:09:01;;;;;;;;;;;14.40;99.90;;;;;;5053512;28;19932;-69
2022/05/02 10:11:35;;;;;;;;;;;14.50;93.80;;;;;;5054866;28;19978;-68
2022/05/02 10:14:02;;;;;;;;;;;14.60;94.80;;;;;;5054822;28;19964;-70
2022/05/02 10:16:48;;;;;;;;;;;14.60;99.90;;;;;;5054925;28;19976;-69
2022/05/02 10:19:20;;;;;;;;;;;14.70;99.90;;;;;;5054719;28;19929;-69
2022/05/02 10:22:01;;;;;;;;;;;14.80;99.90;;;;;;5054831;28;19925;-70
2022/05/02 10:24:27;;;;;;;;;;;14.80;95.00;;;;;;5054219;28;19932;-69
2022/05/02 10:27:07;;;;;;;;;;;14.90;92.30;;;;;;5053570;28;20374;-71
2022/05/02 10:29:54;;;;;;;;;;;14.90;93.60;;;;;;5054565;28;20384;-69
2022/05/02 10:32:24;;;;;;;;;;;14.90;96.40;;;;;;5054441;28;19932;-71
2022/05/02 10:34:52;;;;;;;;;;;15.00;84.00;;;;;;5054656;28;19933;-69
2022/05/02 10:37:24;;;;;;;;;;;14.90;96.30;;;;;;5054183;28;20015;-70
2022/05/02 10:39:55;;;;;;;;;;;15.00;98.90;;;;;;5053153;28;19925;-69
2022/05/02 10:42:25;;;;;;;;;;;15.10;99.90;;;;;;5053195;28;19924;-69
2022/05/02 10:45:01;;;;;;;;;;;15.20;95.60;;;;;;5053770;28;19932;-71
2022/05/02 10:47:30;;;;;;;;;;;15.10;90.40;;;;;;5054384;28;20376;-69
2022/05/02 10:50:03;;;;;;;;;;;14.90;91.70;;;;;;5054183;28;19925;-67
2022/05/02 10:52:48;;;;;;;;;;;14.90;96.20;;;;;;5054645;28;19925;-68
2022/05/02 10:55:19;;;;;;;;;;;14.90;88.90;;;;;;5053103;28;20011;-69
2022/05/02 10:57:49;;;;;;;;;;;14.90;93.70;;;;;;5054319;28;20408;-71
2022/05/02 11:00:15;;;;;;;;;;;14.90;92.90;;;;;;5054163;28;19984;-69
2022/05/02 11:02:47;;;;;;;;;;;14.80;88.90;;;;;;5054013;28;19928;-69
2022/05/02 11:05:36;;;;;;;;;;;14.90;89.60;;;;;;5053883;28;20017;-70
2022/05/02 11:08:02;;;;;;;;;;;14.80;84.50;;;;;;5011711;28;20408;-69
2022/05/02 11:10:30;;;;;;;;;;;14.60;85.60;;;;;;5011923;28;20020;-70
2022/05/02 11:13:08;;;;;;;;;;;14.60;89.90;;;;;;5011924;28;19936;-68
2022/05/02 11:15:52;;;;;;;;;;;14.70;84.40;;;;;;5011928;28;20405;-69
2022/05/02 11:21:24;;;;;;;;;;;14.80;79.50;;;;;;4995368;28;19972;-69
2022/05/02 11:23:49;;;;;;;;;;;14.80;76.00;;;;;;5011549;28;20381;-69
2022/05/02 11:26:37;;;;;;;;;;;14.90;76.70;;;;;;5011748;28;19930;-69
2022/05/02 11:29:21;;;;;;;;;;;14.90;74.60;;;;;;5011737;28;19925;-69
2022/05/02 11:31:54;;;;;;;;;;;15.00;75.90;;;;;;5011660;28;19926;-69
2022/05/02 11:34:25;;;;;;;;;;;15.00;77.30;;;;;;5011749;28;20369;-69
2022/05/02 11:36:53;;;;;;;;;;;15.10;74.30;;;;;;5011559;28;20008;-70
2022/05/02 11:39:36;;;;;;;;;;;15.10;74.80;;;;;;4995385;28;20028;-69
2022/05/02 11:42:09;;;;;;;;;;;15.10;69.90;;;;;;4995020;28;20041;-70
2022/05/02 11:44:44;;;;;;;;;;;15.20;76.00;;;;;;5024777;28;19929;-69
2022/05/02 11:47:16;;;;;;;;;;;15.20;72.80;;;;;;5053354;28;19970;-69
2022/05/02 11:49:52;;;;;;;;;;;15.10;74.80;;;;;;5053564;28;20008;-71
2022/05/02 11:52:36;;;;;;;;;;;15.00;79.50;;;;;;5052183;28;19931;-71
2022/05/02 11:55:04;;;;;;;;;;;14.90;82.20;;;;;;5053053;28;19931;-72
2022/05/02 11:57:35;;;;;;;;;;;14.90;89.30;;;;;;5056345;28;19986;-69
2022/05/02 12:00:07;;;;;;;;;;;15.00;84.30;;;;;;5057443;28;19925;-68
2022/05/02 12:02:36;;;;;;;;;;;15.00;83.40;;;;;;5057555;28;19925;-72
2022/05/02 12:05:05;;;;;;;;;;;15.00;75.90;;;;;;5057449;28;19931;-69
2022/05/02 12:07:32;;;;;;;;;;;15.00;79.70;;;;;;5057202;28;19931;-69
2022/05/02 12:10:05;;;;;;;;;;;15.00;76.70;;;;;;5057212;28;19925;-71
2022/05/02 12:12:31;;;;;;;;;;;15.00;79.40;;;;;;5057086;28;20296;-69
2022/05/02 12:15:03;;;;;;;;;;;15.20;82.00;;;;;;5057070;28;19959;-69
2022/05/02 12:17:29;;;;;;;;;;;14.20;78.10;;;;;;5057063;28;19931;-68
2022/05/02 12:19:55;;;;;;;;;;;15.20;80.40;;;;;;5057138;28;19929;-70
2022/05/02 12:22:24;;;;;;;;;;;15.30;78.80;;;;;;5056100;28;19924;-68
2022/05/02 12:24:51;;;;;;;;;;;15.30;76.50;;;;;;5056731;28;19932;-68
2022/05/02 12:27:19;;;;;;;;;;;15.40;75.40;;;;;;5056897;28;19925;-71
2022/05/02 12:29:54;;;;;;;;;;;15.30;72.20;;;;;;5057088;28;20338;-72
2022/05/02 12:32:24;;;;;;;;;;;15.30;74.00;;;;;;5056026;28;19925;-70
2022/05/02 12:34:54;;;;;;;;;;;15.30;74.90;;;;;;5055591;28;19932;-69
2022/05/02 12:37:30;;;;;;;;;;;15.30;77.50;;;;;;5054861;28;19924;-69
2022/05/02 12:40:05;;;;;;;;;;;15.40;74.70;;;;;;5056599;28;19924;-68
2022/05/02 12:42:41;;;;;;;;;;;15.40;71.50;;;;;;5055964;28;19979;-69
2022/05/02 12:45:08;;;;;;;;;;;15.40;71.30;;;;;;5056600;28;19925;-68
2022/05/02 12:47:46;;;;;;;;;;;15.40;71.20;;;;;;5055615;28;19924;-70
2022/05/02 12:50:14;;;;;;;;;;;15.40;69.00;;;;;;5055558;28;19974;-68
2022/05/02 12:52:44;;;;;;;;;;;15.70;66.60;;;;;;5056052;28;19932;-69
2022/05/02 12:55:11;;;;;;;;;;;15.30;69.20;;;;;;5055137;28;20411;-68
2022/05/02 13:00:33;;;;;;;;;;;15.50;72.80;;;;;;5055422;28;19979;-69
2022/05/02 13:03:00;;;;;;;;;;;15.40;69.30;;;;;;5056151;28;19972;-69
2022/05/02 13:05:29;;;;;;;;;;;15.40;69.90;;;;;;5056299;28;20037;-69
2022/05/02 13:07:55;;;;;;;;;;;15.30;71.80;;;;;;5055340;28;19925;-68
2022/05/02 13:10:25;;;;;;;;;;;15.30;69.90;;;;;;5054987;28;19931;-69
2022/05/02 13:12:53;;;;;;;;;;;15.20;71.40;;;;;;5054770;28;20026;-67
2022/05/02 13:15:20;;;;;;;;;;;15.30;72.60;;;;;;5056067;28;19924;-68
2022/05/02 13:17:49;;;;;;;;;;;15.40;73.00;;;;;;5055913;28;20283;-69
2022/05/02 13:20:14;;;;;;;;;;;15.50;71.30;;;;;;5056167;28;19978;-69
2022/05/02 13:22:59;;;;;;;;;;;15.50;73.20;;;;;;5055876;28;19929;-69
2022/05/02 13:25:43;;;;;;;;;;;15.60;68.50;;;;;;5055765;28;19931;-71
2022/05/02 13:28:10;;;;;;;;;;;15.70;69.40;;;;;;5055517;28;19947;-68
2022/05/02 13:30:35;;;;;;;;;;;15.60;68.50;;;;;;5055891;28;19929;-70
2022/05/02 13:33:08;;;;;;;;;;;15.70;68.60;;;;;;5054735;28;20304;-69
2022/05/02 13:35:35;;;;;;;;;;;15.70;68.50;;;;;;5055772;28;19925;-68
2022/05/02 13:38:18;;;;;;;;;;;15.70;67.20;;;;;;5055438;28;19924;-69
2022/05/02 13:40:50;;;;;;;;;;;15.70;67.40;;;;;;5054551;28;20011;-70
2022/05/02 13:43:25;;;;;;;;;;;15.80;66.50;;;;;;5054453;28;19931;-71
2022/05/02 13:45:59;;;;;;;;;;;15.80;66.90;;;;;;5055701;28;19931;-69
2022/05/02 13:48:25;;;;;;;;;;;15.70;64.00;;;;;;5055391;28;19936;-70
2022/05/02 13:50:52;;;;;;;;;;;15.70;66.00;;;;;;5054080;28;19925;-69
2022/05/02 13:53:21;;;;;;;;;;;15.80;66.40;;;;;;5055208;28;19925;-69
2022/05/02 13:55:46;;;;;;;;;;;15.80;66.20;;;;;;5055511;28;19975;-69
2022/05/02 13:58:21;;;;;;;;;;;15.80;64.30;;;;;;5055346;28;19976;-69
2022/05/02 14:03:38;;;;;;;;;;;15.90;63.70;;;;;;5055084;28;19936;-70
2022/05/02 14:06:09;;;;;;;;;;;15.20;64.80;;;;;;5055034;28;19971;-69
2022/05/02 14:08:35;;;;;;;;;;;15.90;64.40;;;;;;5054845;28;20423;-69
2022/05/02 14:11:01;;;;;;;;;;;15.90;63.50;;;;;;5055064;28;19924;-70
2022/05/02 14:13:28;;;;;;;;;;;15.90;62.60;;;;;;5055072;28;19931;-70
2022/05/02 14:15:54;;;;;;;;;;;15.90;61.30;;;;;;5054993;28;19925;-69
2022/05/02 14:18:22;;;;;;;;;;;15.90;64.60;;;;;;5054872;28;19979;-68
2022/05/02 14:20:57;;;;;;;;;;;15.90;65.10;;;;;;5052838;28;20430;-69
2022/05/02 14:23:25;;;;;;;;;;;16.00;65.70;;;;;;5054775;28;19925;-70
2022/05/02 14:25:52;;;;;;;;;;;16.00;64.90;;;;;;5053728;28;19924;-69
2022/05/02 14:28:18;;;;;;;;;;;16.10;64.60;;;;;;5053845;28;19929;-69
2022/05/02 14:30:45;;;;;;;;;;;16.10;64.20;;;;;;5053418;28;19928;-69
2022/05/02 14:33:14;;;;;;;;;;;16.10;63.60;;;;;;5054567;28;19925;-69
2022/05/02 14:35:41;;;;;;;;;;;16.10;65.00;;;;;;5049721;28;19925;-72
2022/05/02 14:38:08;;;;;;;;;;;16.10;64.00;;;;;;5039510;28;20011;-69
2022/05/02 14:40:38;;;;;;;;;;;16.20;63.80;;;;;;5039055;28;19925;-69
2022/05/02 14:43:04;;;;;;;;;;;16.20;62.50;;;;;;5035200;28;20372;-70
2022/05/02 14:45:30;;;;;;;;;;;16.20;61.80;;;;;;5046092;28;19931;-69
2022/05/02 14:47:56;;;;;;;;;;;16.20;61.90;;;;;;5054274;28;20302;-69
2022/05/02 14:50:21;;;;;;;;;;;16.30;62.60;;;;;;5054284;28;19980;-69
2022/05/02 14:52:48;;;;;;;;;;;16.30;63.50;;;;;;5054127;28;19929;-70
2022/05/02 14:55:15;;;;;;;;;;;16.30;62.50;;;;;;5039048;28;19924;-70
2022/05/02 14:57:43;;;;;;;;;;;16.30;61.80;;;;;;5046169;28;20353;-71
2022/05/02 15:00:12;;;;;;;;;;;16.40;62.80;;;;;;5049896;28;20399;-70
2022/05/02 15:02:38;;;;;;;;;;;16.40;62.20;;;;;;5042750;28;19972;-69
2022/05/02 15:05:14;;;;;;;;;;;16.40;62.50;;;;;;5051116;28;20007;-71
2022/05/02 15:08:05;;;;;;;;;;;16.50;62.30;;;;;;5053745;28;19937;-69
2022/05/02 15:10:49;;;;;;;;;;;16.50;61.70;;;;;;5053836;28;19924;-71
2022/05/02 15:13:22;;;;;;;;;;;16.70;62.50;;;;;;5053658;28;20358;-68
2022/05/02 15:16:03;;;;;;;;;;;16.80;61.30;;;;;;5053955;28;20303;-68
2022/05/02 15:21:35;;;;;;;;;;;16.90;61.10;;;;;;5053745;28;20363;-69
2022/05/02 15:24:20;;;;;;;;;;;17.00;60.10;;;;;;5053587;28;19924;-71